sensor_id;sensor_type;location;lat;lon;timestamp;pressure;altitude;pressure_sealevel;temperature;humidity
37068;BME280;22982;42.848;25.468;2023-05-03T00:02:26;96627.72;;;11.69;41.87
37068;BME280;22982;42.848;25.468;2023-05-03T00:07:29;96572.22;;;11.45;41.63
37068;BME280;22982;42.848;25.468;2023-05-03T00:12:31;96604.25;;;11.66;41.82
37068;BME280;22982;42.848;25.468;2023-05-03T00:17:35;96600.13;;;11.62;42.00
37068;BME280;22982;42.848;25.468;2023-05-03T00:22:38;96605.66;;;11.72;41.87
37068;BME280;22982;42.848;25.468;2023-05-03T00:27:40;96594.13;;;11.74;41.63
37068;BME280;22982;42.848;25.468;2023-05-03T00:32:43;96604.28;;;11.80;41.84
37068;BME280;22982;42.848;25.468;2023-05-03T00:37:45;96602.88;;;11.89;41.47
37068;BME280;22982;42.848;25.468;2023-05-03T00:42:48;96577.91;;;11.82;41.82
37068;BME280;22982;42.848;25.468;2023-05-03T00:47:51;96595.28;;;11.84;41.91
37068;BME280;22982;42.848;25.468;2023-05-03T00:52:54;96585.63;;;11.99;41.74
37068;BME280;22982;42.848;25.468;2023-05-03T00:57:57;96583.75;;;12.01;41.62
37068;BME280;22982;42.848;25.468;2023-05-03T01:02:59;96610.91;;;12.16;41.51
37068;BME280;22982;42.848;25.468;2023-05-03T01:08:12;96570.81;;;11.98;41.12
37068;BME280;22982;42.848;25.468;2023-05-03T01:13:25;96602.16;;;12.30;40.93
37068;BME280;22982;42.848;25.468;2023-05-03T01:18:30;96595.22;;;12.29;40.50
37068;BME280;22982;42.848;25.468;2023-05-03T01:23:41;96594.56;;;12.25;40.68
37068;BME280;22982;42.848;25.468;2023-05-03T01:28:45;96599.75;;;12.27;40.75
37068;BME280;22982;42.848;25.468;2023-05-03T01:34:04;96574.47;;;12.10;41.09
37068;BME280;22982;42.848;25.468;2023-05-03T01:39:13;96578.63;;;12.29;41.11
37068;BME280;22982;42.848;25.468;2023-05-03T01:44:19;96591.56;;;12.17;40.73
37068;BME280;22982;42.848;25.468;2023-05-03T01:49:23;96590.81;;;12.15;40.67
37068;BME280;22982;42.848;25.468;2023-05-03T01:54:26;96565.19;;;11.90;40.94
37068;BME280;22982;42.848;25.468;2023-05-03T01:59:29;96605.09;;;12.25;40.62
37068;BME280;22982;42.848;25.468;2023-05-03T02:04:31;96588.34;;;12.12;40.57
37068;BME280;22982;42.848;25.468;2023-05-03T02:09:34;96594.75;;;12.22;40.32
37068;BME280;22982;42.848;25.468;2023-05-03T02:14:37;96590.53;;;12.34;40.68
37068;BME280;22982;42.848;25.468;2023-05-03T02:19:39;96583.00;;;12.42;40.25
37068;BME280;22982;42.848;25.468;2023-05-03T02:24:42;96548.19;;;12.10;40.69
37068;BME280;22982;42.848;25.468;2023-05-03T02:29:44;96556.72;;;12.28;40.55
37068;BME280;22982;42.848;25.468;2023-05-03T02:34:48;96574.44;;;12.39;40.60
37068;BME280;22982;42.848;25.468;2023-05-03T02:40:10;96528.47;;;12.17;40.68
37068;BME280;22982;42.848;25.468;2023-05-03T02:45:15;96562.94;;;12.27;40.62
37068;BME280;22982;42.848;25.468;2023-05-03T02:50:17;96559.91;;;12.33;40.32
37068;BME280;22982;42.848;25.468;2023-05-03T02:55:21;96526.56;;;12.19;39.60
37068;BME280;22982;42.848;25.468;2023-05-03T03:00:24;96550.53;;;12.29;39.26
37068;BME280;22982;42.848;25.468;2023-05-03T03:05:27;96547.13;;;12.41;38.76
37068;BME280;22982;42.848;25.468;2023-05-03T03:10:30;96574.31;;;12.55;38.91
37068;BME280;22982;42.848;25.468;2023-05-03T03:15:33;96584.25;;;12.64;38.94
37068;BME280;22982;42.848;25.468;2023-05-03T03:20:35;96578.47;;;12.44;39.19
37068;BME280;22982;42.848;25.468;2023-05-03T03:25:38;96578.78;;;12.40;39.60
37068;BME280;22982;42.848;25.468;2023-05-03T03:30:40;96585.47;;;12.17;40.72
37068;BME280;22982;42.848;25.468;2023-05-03T03:35:54;96594.66;;;12.10;41.12
37068;BME280;22982;42.848;25.468;2023-05-03T03:41:02;96595.72;;;12.07;41.31
37068;BME280;22982;42.848;25.468;2023-05-03T03:46:05;96574.13;;;12.02;41.75
37068;BME280;22982;42.848;25.468;2023-05-03T03:51:09;96593.44;;;12.01;41.91
37068;BME280;22982;42.848;25.468;2023-05-03T03:56:18;96566.47;;;11.83;41.16
37068;BME280;22982;42.848;25.468;2023-05-03T04:01:25;96577.75;;;11.99;41.20
37068;BME280;22982;42.848;25.468;2023-05-03T04:06:29;96591.09;;;12.11;41.60
37068;BME280;22982;42.848;25.468;2023-05-03T04:11:39;96583.41;;;12.07;41.23
37068;BME280;22982;42.848;25.468;2023-05-03T04:16:41;96552.22;;;12.01;40.99
37068;BME280;22982;42.848;25.468;2023-05-03T04:21:45;96588.66;;;12.22;40.65
37068;BME280;22982;42.848;25.468;2023-05-03T04:26:48;96567.25;;;12.14;40.61
37068;BME280;22982;42.848;25.468;2023-05-03T04:32:00;96570.44;;;12.04;41.08
37068;BME280;22982;42.848;25.468;2023-05-03T04:37:03;96602.16;;;12.30;40.67
37068;BME280;22982;42.848;25.468;2023-05-03T04:42:07;96592.69;;;12.28;40.73
37068;BME280;22982;42.848;25.468;2023-05-03T04:47:11;96588.66;;;12.22;40.77
37068;BME280;22982;42.848;25.468;2023-05-03T04:52:15;96537.97;;;12.20;41.27
37068;BME280;22982;42.848;25.468;2023-05-03T04:57:18;96563.28;;;12.35;40.68
37068;BME280;22982;42.848;25.468;2023-05-03T05:02:20;96607.59;;;12.56;40.26
37068;BME280;22982;42.848;25.468;2023-05-03T05:07:24;96583.16;;;12.54;39.92
37068;BME280;22982;42.848;25.468;2023-05-03T05:12:27;96605.47;;;12.75;39.42
37068;BME280;22982;42.848;25.468;2023-05-03T05:17:32;96595.50;;;12.80;39.56
37068;BME280;22982;42.848;25.468;2023-05-03T05:22:38;96601.25;;;12.73;40.37
37068;BME280;22982;42.848;25.468;2023-05-03T05:27:40;96636.50;;;12.70;41.25
37068;BME280;22982;42.848;25.468;2023-05-03T05:32:44;96626.94;;;12.40;41.58
37068;BME280;22982;42.848;25.468;2023-05-03T05:37:48;96610.91;;;12.87;38.79
37068;BME280;22982;42.848;25.468;2023-05-03T05:42:51;96633.22;;;13.08;39.28
37068;BME280;22982;42.848;25.468;2023-05-03T05:47:56;96632.28;;;13.36;39.38
37068;BME280;22982;42.848;25.468;2023-05-03T05:52:58;96624.91;;;13.14;39.80
37068;BME280;22982;42.848;25.468;2023-05-03T05:58:05;96640.72;;;13.14;39.43
37068;BME280;22982;42.848;25.468;2023-05-03T06:03:14;96637.56;;;13.36;38.49
37068;BME280;22982;42.848;25.468;2023-05-03T06:08:19;96646.22;;;13.51;37.69
37068;BME280;22982;42.848;25.468;2023-05-03T06:13:21;96648.50;;;13.83;36.78
37068;BME280;22982;42.848;25.468;2023-05-03T06:18:26;96648.31;;;13.86;36.43
37068;BME280;22982;42.848;25.468;2023-05-03T06:23:28;96658.75;;;13.75;36.66
37068;BME280;22982;42.848;25.468;2023-05-03T06:28:32;96663.78;;;13.78;37.24
37068;BME280;22982;42.848;25.468;2023-05-03T06:33:35;96671.28;;;13.71;37.70
37068;BME280;22982;42.848;25.468;2023-05-03T06:38:42;96688.13;;;13.69;38.27
37068;BME280;22982;42.848;25.468;2023-05-03T06:43:44;96690.94;;;13.66;39.36
37068;BME280;22982;42.848;25.468;2023-05-03T06:48:48;96676.41;;;13.33;40.48
37068;BME280;22982;42.848;25.468;2023-05-03T06:53:50;96695.59;;;13.35;41.77
37068;BME280;22982;42.848;25.468;2023-05-03T06:58:53;96687.50;;;13.38;43.13
37068;BME280;22982;42.848;25.468;2023-05-03T07:03:55;96675.69;;;13.16;45.13
37068;BME280;22982;42.848;25.468;2023-05-03T07:08:59;96692.41;;;13.30;46.24
37068;BME280;22982;42.848;25.468;2023-05-03T07:14:01;96677.94;;;13.37;46.04
37068;BME280;22982;42.848;25.468;2023-05-03T07:19:03;96685.44;;;13.56;45.06
37068;BME280;22982;42.848;25.468;2023-05-03T07:24:06;96649.25;;;13.32;46.15
37068;BME280;22982;42.848;25.468;2023-05-03T07:29:09;96635.91;;;13.48;46.25
37068;BME280;22982;42.848;25.468;2023-05-03T07:34:11;96636.44;;;13.26;47.52
37068;BME280;22982;42.848;25.468;2023-05-03T07:39:14;96630.28;;;13.40;47.61
37068;BME280;22982;42.848;25.468;2023-05-03T07:44:16;96659.59;;;13.88;47.12
37068;BME280;22982;42.848;25.468;2023-05-03T07:49:19;96685.22;;;13.99;46.96
37068;BME280;22982;42.848;25.468;2023-05-03T07:54:21;96673.28;;;13.68;46.81
37068;BME280;22982;42.848;25.468;2023-05-03T07:59:24;96661.22;;;14.16;46.02
37068;BME280;22982;42.848;25.468;2023-05-03T08:04:27;96651.91;;;14.49;45.43
37068;BME280;22982;42.848;25.468;2023-05-03T08:09:29;96652.00;;;15.10;44.54
37068;BME280;22982;42.848;25.468;2023-05-03T08:14:33;96664.81;;;15.28;45.00
37068;BME280;22982;42.848;25.468;2023-05-03T08:19:37;96666.69;;;15.63;44.16
37068;BME280;22982;42.848;25.468;2023-05-03T08:24:39;96650.72;;;16.00;43.98
37068;BME280;22982;42.848;25.468;2023-05-03T08:29:43;96652.69;;;16.77;41.82
37068;BME280;22982;42.848;25.468;2023-05-03T08:34:45;96610.56;;;16.51;42.88
37068;BME280;22982;42.848;25.468;2023-05-03T08:39:48;96621.00;;;17.41;41.40
37068;BME280;22982;42.848;25.468;2023-05-03T08:44:51;96627.97;;;17.54;41.54
37068;BME280;22982;42.848;25.468;2023-05-03T08:49:54;96621.19;;;17.82;40.79
37068;BME280;22982;42.848;25.468;2023-05-03T08:54:57;96602.53;;;18.35;40.71
37068;BME280;22982;42.848;25.468;2023-05-03T08:59:59;96582.00;;;18.78;39.70
37068;BME280;22982;42.848;25.468;2023-05-03T09:05:05;96569.09;;;19.92;36.60
37068;BME280;22982;42.848;25.468;2023-05-03T09:10:23;96575.94;;;21.25;33.52
37068;BME280;22982;42.848;25.468;2023-05-03T09:15:26;96559.09;;;21.60;32.05
37068;BME280;22982;42.848;25.468;2023-05-03T09:20:34;96569.38;;;21.55;32.69
37068;BME280;22982;42.848;25.468;2023-05-03T09:25:46;96579.50;;;21.16;32.96
37068;BME280;22982;42.848;25.468;2023-05-03T09:31:05;96547.00;;;20.84;31.52
37068;BME280;22982;42.848;25.468;2023-05-03T09:36:08;96568.31;;;20.84;30.99
37068;BME280;22982;42.848;25.468;2023-05-03T09:41:13;96568.97;;;20.31;31.72
37068;BME280;22982;42.848;25.468;2023-05-03T09:46:15;96555.06;;;20.37;32.37
37068;BME280;22982;42.848;25.468;2023-05-03T09:51:20;96560.38;;;20.47;33.09
37068;BME280;22982;42.848;25.468;2023-05-03T09:56:24;96548.31;;;20.43;32.84
37068;BME280;22982;42.848;25.468;2023-05-03T10:01:29;96536.56;;;20.73;32.12
37068;BME280;22982;42.848;25.468;2023-05-03T10:06:39;96543.78;;;21.45;32.07
37068;BME280;22982;42.848;25.468;2023-05-03T10:11:47;96544.97;;;22.47;30.50
37068;BME280;22982;42.848;25.468;2023-05-03T10:17:37;96536.94;;;22.81;30.53
37068;BME280;22982;42.848;25.468;2023-05-03T10:22:14;96524.38;;;21.42;32.62
37068;BME280;22982;42.848;25.468;2023-05-03T10:27:16;96514.09;;;20.94;32.54
37068;BME280;22982;42.848;25.468;2023-05-03T10:32:38;96541.88;;;20.08;35.74
37068;BME280;22982;42.848;25.468;2023-05-03T10:37:47;96543.50;;;20.56;36.30
37068;BME280;22982;42.848;25.468;2023-05-03T10:42:55;96517.97;;;20.63;35.47
37068;BME280;22982;42.848;25.468;2023-05-03T10:48:24;96536.13;;;21.32;34.89
37068;BME280;22982;42.848;25.468;2023-05-03T11:09:06;96539.13;;;19.90;37.70
37068;BME280;22982;42.848;25.468;2023-05-03T11:14:10;96564.19;;;19.68;38.13
37068;BME280;22982;42.848;25.468;2023-05-03T11:19:15;96553.41;;;19.69;38.09
37068;BME280;22982;42.848;25.468;2023-05-03T11:24:18;96546.53;;;19.86;37.82
37068;BME280;22982;42.848;25.468;2023-05-03T11:29:20;96535.63;;;19.80;38.95
37068;BME280;22982;42.848;25.468;2023-05-03T11:34:26;96529.31;;;19.91;39.17
37068;BME280;22982;42.848;25.468;2023-05-03T11:39:31;96522.19;;;19.72;39.55
37068;BME280;22982;42.848;25.468;2023-05-03T11:44:34;96518.28;;;19.76;40.39
37068;BME280;22982;42.848;25.468;2023-05-03T11:49:38;96526.41;;;19.55;40.76
37068;BME280;22982;42.848;25.468;2023-05-03T11:54:42;96517.19;;;19.39;40.83
37068;BME280;22982;42.848;25.468;2023-05-03T11:59:44;96544.06;;;19.26;40.95
37068;BME280;22982;42.848;25.468;2023-05-03T12:04:47;96528.88;;;18.78;41.42
37068;BME280;22982;42.848;25.468;2023-05-03T12:09:50;96512.97;;;18.88;41.70
37068;BME280;22982;42.848;25.468;2023-05-03T12:15:12;96523.38;;;19.01;41.67
37068;BME280;22982;42.848;25.468;2023-05-03T12:20:19;96500.53;;;19.47;41.63
37068;BME280;22982;42.848;25.468;2023-05-03T12:25:25;96501.78;;;19.62;41.64
37068;BME280;22982;42.848;25.468;2023-05-03T12:30:33;96506.44;;;18.92;42.92
37068;BME280;22982;42.848;25.468;2023-05-03T12:35:36;96478.63;;;18.36;43.68
37068;BME280;22982;42.848;25.468;2023-05-03T12:40:41;96483.06;;;18.35;44.02
37068;BME280;22982;42.848;25.468;2023-05-03T12:45:47;96486.41;;;18.28;44.80
37068;BME280;22982;42.848;25.468;2023-05-03T12:51:04;96484.81;;;18.15;45.29
37068;BME280;22982;42.848;25.468;2023-05-03T12:56:21;96470.63;;;18.26;45.53
37068;BME280;22982;42.848;25.468;2023-05-03T13:01:26;96467.34;;;18.03;47.00
37068;BME280;22982;42.848;25.468;2023-05-03T13:06:33;96468.06;;;18.05;47.74
37068;BME280;22982;42.848;25.468;2023-05-03T13:11:44;96470.56;;;18.07;48.50
37068;BME280;22982;42.848;25.468;2023-05-03T13:16:49;96462.19;;;18.02;49.19
37068;BME280;22982;42.848;25.468;2023-05-03T13:21:53;96423.19;;;17.71;50.06
37068;BME280;22982;42.848;25.468;2023-05-03T13:26:55;96443.34;;;17.84;50.96
37068;BME280;22982;42.848;25.468;2023-05-03T13:31:58;96434.66;;;17.72;51.60
37068;BME280;22982;42.848;25.468;2023-05-03T13:37:01;96436.50;;;17.81;52.36
37068;BME280;22982;42.848;25.468;2023-05-03T13:42:05;96424.34;;;17.78;51.88
37068;BME280;22982;42.848;25.468;2023-05-03T13:47:11;96432.81;;;17.93;51.95
37068;BME280;22982;42.848;25.468;2023-05-03T13:52:13;96436.16;;;17.95;52.47
37068;BME280;22982;42.848;25.468;2023-05-03T13:57:16;96424.59;;;17.75;52.58
37068;BME280;22982;42.848;25.468;2023-05-03T14:02:19;96435.53;;;17.82;52.77
37068;BME280;22982;42.848;25.468;2023-05-03T14:07:22;96437.88;;;18.06;52.10
37068;BME280;22982;42.848;25.468;2023-05-03T14:12:24;96439.31;;;18.20;50.82
37068;BME280;22982;42.848;25.468;2023-05-03T14:17:28;96432.50;;;17.87;53.56
37068;BME280;22982;42.848;25.468;2023-05-03T14:22:32;96429.75;;;17.98;52.29
37068;BME280;22982;42.848;25.468;2023-05-03T14:27:35;96416.94;;;18.13;52.71
37068;BME280;22982;42.848;25.468;2023-05-03T14:32:37;96420.31;;;18.15;51.78
37068;BME280;22982;42.848;25.468;2023-05-03T14:37:40;96414.13;;;18.05;52.42
37068;BME280;22982;42.848;25.468;2023-05-03T14:42:42;96402.16;;;18.10;52.61
37068;BME280;22982;42.848;25.468;2023-05-03T14:47:45;96392.50;;;18.00;52.25
37068;BME280;22982;42.848;25.468;2023-05-03T14:52:48;96411.72;;;17.92;53.09
37068;BME280;22982;42.848;25.468;2023-05-03T14:57:50;96411.19;;;17.67;53.63
37068;BME280;22982;42.848;25.468;2023-05-03T15:02:53;96427.63;;;17.61;53.93
37068;BME280;22982;42.848;25.468;2023-05-03T15:07:58;96429.19;;;17.42;53.08
37068;BME280;22982;42.848;25.468;2023-05-03T15:13:00;96413.72;;;17.17;53.46
37068;BME280;22982;42.848;25.468;2023-05-03T15:18:08;96419.22;;;17.04;51.86
37068;BME280;22982;42.848;25.468;2023-05-03T15:23:10;96412.56;;;17.10;52.12
37068;BME280;22982;42.848;25.468;2023-05-03T15:28:12;96404.06;;;17.16;50.56
37068;BME280;22982;42.848;25.468;2023-05-03T15:33:14;96384.88;;;17.23;49.50
37068;BME280;22982;42.848;25.468;2023-05-03T15:38:17;96383.00;;;17.35;52.75
37068;BME280;22982;42.848;25.468;2023-05-03T15:43:20;96384.75;;;17.25;49.30
37068;BME280;22982;42.848;25.468;2023-05-03T15:48:22;96376.53;;;17.07;50.69
37068;BME280;22982;42.848;25.468;2023-05-03T15:53:26;96400.75;;;17.23;52.10
37068;BME280;22982;42.848;25.468;2023-05-03T15:58:28;96393.56;;;17.05;49.75
37068;BME280;22982;42.848;25.468;2023-05-03T16:03:32;96407.69;;;16.94;51.23
37068;BME280;22982;42.848;25.468;2023-05-03T16:08:34;96417.56;;;16.59;40.76
37068;BME280;22982;42.848;25.468;2023-05-03T16:13:38;96418.09;;;16.42;37.92
37068;BME280;22982;42.848;25.468;2023-05-03T16:18:40;96424.91;;;16.12;37.06
37068;BME280;22982;42.848;25.468;2023-05-03T16:23:43;96436.13;;;15.82;37.96
37068;BME280;22982;42.848;25.468;2023-05-03T16:28:46;96422.63;;;15.51;38.76
37068;BME280;22982;42.848;25.468;2023-05-03T16:33:51;96440.19;;;15.52;39.53
37068;BME280;22982;42.848;25.468;2023-05-03T16:38:53;96429.47;;;15.20;39.83
37068;BME280;22982;42.848;25.468;2023-05-03T16:43:56;96440.66;;;14.99;40.25
37068;BME280;22982;42.848;25.468;2023-05-03T16:48:58;96473.78;;;14.92;40.36
37068;BME280;22982;42.848;25.468;2023-05-03T16:54:01;96480.63;;;14.70;38.55
37068;BME280;22982;42.848;25.468;2023-05-03T16:59:05;96490.59;;;14.54;37.76
37068;BME280;22982;42.848;25.468;2023-05-03T17:04:08;96502.22;;;14.64;37.35
37068;BME280;22982;42.848;25.468;2023-05-03T17:09:10;96484.81;;;14.49;36.50
37068;BME280;22982;42.848;25.468;2023-05-03T17:14:14;96475.22;;;14.48;35.34
37068;BME280;22982;42.848;25.468;2023-05-03T17:19:16;96493.63;;;14.36;34.62
37068;BME280;22982;42.848;25.468;2023-05-03T17:24:19;96519.53;;;14.19;34.91
37068;BME280;22982;42.848;25.468;2023-05-03T17:29:22;96516.47;;;14.12;34.83
37068;BME280;22982;42.848;25.468;2023-05-03T17:34:24;96513.97;;;13.97;34.50
37068;BME280;22982;42.848;25.468;2023-05-03T17:39:27;96523.88;;;14.07;33.55
37068;BME280;22982;42.848;25.468;2023-05-03T17:44:29;96501.56;;;13.74;33.30
37068;BME280;22982;42.848;25.468;2023-05-03T17:49:32;96507.47;;;13.65;33.73
37068;BME280;22982;42.848;25.468;2023-05-03T17:54:35;96522.75;;;13.72;33.10
37068;BME280;22982;42.848;25.468;2023-05-03T17:59:37;96530.22;;;13.66;31.49
37068;BME280;22982;42.848;25.468;2023-05-03T18:04:40;96539.09;;;13.77;31.14
37068;BME280;22982;42.848;25.468;2023-05-03T18:09:42;96553.09;;;13.65;31.22
37068;BME280;22982;42.848;25.468;2023-05-03T18:14:45;96575.78;;;13.68;30.51
37068;BME280;22982;42.848;25.468;2023-05-03T18:19:48;96592.09;;;13.73;31.00
37068;BME280;22982;42.848;25.468;2023-05-03T18:24:53;96648.22;;;13.48;32.25
37068;BME280;22982;42.848;25.468;2023-05-03T18:29:57;96646.00;;;12.01;39.36
37068;BME280;22982;42.848;25.468;2023-05-03T18:34:59;96661.03;;;10.59;51.80
37068;BME280;22982;42.848;25.468;2023-05-03T18:40:02;96643.19;;;9.65;60.11
37068;BME280;22982;42.848;25.468;2023-05-03T18:45:06;96641.13;;;9.54;67.73
37068;BME280;22982;42.848;25.468;2023-05-03T18:50:09;96630.06;;;9.30;77.26
37068;BME280;22982;42.848;25.468;2023-05-03T18:55:11;96647.00;;;9.06;85.28
37068;BME280;22982;42.848;25.468;2023-05-03T19:00:14;96630.72;;;8.62;99.36
37068;BME280;22982;42.848;25.468;2023-05-03T19:05:18;96637.94;;;8.57;100.00
37068;BME280;22982;42.848;25.468;2023-05-03T19:10:21;96636.63;;;8.28;100.00
37068;BME280;22982;42.848;25.468;2023-05-03T19:15:24;96664.53;;;8.28;100.00
37068;BME280;22982;42.848;25.468;2023-05-03T19:20:26;96637.75;;;8.41;100.00
37068;BME280;22982;42.848;25.468;2023-05-03T19:25:29;96649.25;;;8.37;100.00
37068;BME280;22982;42.848;25.468;2023-05-03T19:30:31;96637.44;;;8.49;100.00
37068;BME280;22982;42.848;25.468;2023-05-03T19:35:38;96642.25;;;8.58;100.00
37068;BME280;22982;42.848;25.468;2023-05-03T19:40:54;96637.78;;;8.60;100.00
37068;BME280;22982;42.848;25.468;2023-05-03T19:45:56;96642.09;;;8.61;100.00
37068;BME280;22982;42.848;25.468;2023-05-03T19:51:11;96668.38;;;8.58;100.00
37068;BME280;22982;42.848;25.468;2023-05-03T19:56:15;96663.00;;;8.42;100.00
37068;BME280;22982;42.848;25.468;2023-05-03T20:01:19;96665.31;;;8.49;100.00
37068;BME280;22982;42.848;25.468;2023-05-03T20:06:21;96647.66;;;8.35;100.00
37068;BME280;22982;42.848;25.468;2023-05-03T20:11:25;96607.72;;;7.93;100.00
37068;BME280;22982;42.848;25.468;2023-05-03T20:16:30;96637.69;;;7.84;100.00
37068;BME280;22982;42.848;25.468;2023-05-03T20:21:33;96647.53;;;7.78;100.00
37068;BME280;22982;42.848;25.468;2023-05-03T20:26:37;96632.41;;;7.86;100.00
37068;BME280;22982;42.848;25.468;2023-05-03T20:31:40;96633.19;;;8.07;100.00
37068;BME280;22982;42.848;25.468;2023-05-03T20:36:42;96639.19;;;8.09;100.00
37068;BME280;22982;42.848;25.468;2023-05-03T20:41:45;96632.16;;;8.11;100.00
37068;BME280;22982;42.848;25.468;2023-05-03T20:46:47;96626.94;;;8.11;100.00
37068;BME280;22982;42.848;25.468;2023-05-03T20:51:50;96604.13;;;8.15;100.00
37068;BME280;22982;42.848;25.468;2023-05-03T20:56:55;96622.34;;;8.16;100.00
37068;BME280;22982;42.848;25.468;2023-05-03T21:02:00;96601.16;;;8.03;100.00
37068;BME280;22982;42.848;25.468;2023-05-03T21:07:04;96612.75;;;8.17;100.00
37068;BME280;22982;42.848;25.468;2023-05-03T21:12:07;96606.38;;;8.41;100.00
37068;BME280;22982;42.848;25.468;2023-05-03T21:17:10;96624.72;;;8.60;100.00
37068;BME280;22982;42.848;25.468;2023-05-03T21:22:13;96600.56;;;8.55;100.00
37068;BME280;22982;42.848;25.468;2023-05-03T21:27:15;96602.28;;;8.74;100.00
37068;BME280;22982;42.848;25.468;2023-05-03T21:32:20;96614.91;;;9.02;100.00
37068;BME280;22982;42.848;25.468;2023-05-03T21:37:23;96628.69;;;8.87;100.00
37068;BME280;22982;42.848;25.468;2023-05-03T21:42:26;96615.53;;;9.07;100.00
37068;BME280;22982;42.848;25.468;2023-05-03T21:47:29;96618.84;;;9.11;100.00
37068;BME280;22982;42.848;25.468;2023-05-03T21:52:32;96593.59;;;9.10;100.00
37068;BME280;22982;42.848;25.468;2023-05-03T21:57:35;96579.78;;;8.89;100.00
37068;BME280;22982;42.848;25.468;2023-05-03T22:02:38;96571.34;;;8.84;100.00
37068;BME280;22982;42.848;25.468;2023-05-03T22:07:40;96570.50;;;9.00;100.00
37068;BME280;22982;42.848;25.468;2023-05-03T22:12:43;96569.66;;;8.63;100.00
37068;BME280;22982;42.848;25.468;2023-05-03T22:17:46;96581.97;;;8.61;100.00
37068;BME280;22982;42.848;25.468;2023-05-03T22:22:48;96572.00;;;8.70;100.00
37068;BME280;22982;42.848;25.468;2023-05-03T22:27:52;96556.88;;;8.76;100.00
37068;BME280;22982;42.848;25.468;2023-05-03T22:32:54;96567.72;;;8.86;100.00
37068;BME280;22982;42.848;25.468;2023-05-03T22:37:57;96563.25;;;8.88;100.00
37068;BME280;22982;42.848;25.468;2023-05-03T22:43:00;96566.94;;;8.84;100.00
37068;BME280;22982;42.848;25.468;2023-05-03T22:48:04;96552.94;;;8.85;100.00
37068;BME280;22982;42.848;25.468;2023-05-03T22:53:06;96544.56;;;8.96;100.00
37068;BME280;22982;42.848;25.468;2023-05-03T22:58:09;96544.09;;;8.70;100.00
37068;BME280;22982;42.848;25.468;2023-05-03T23:03:12;96538.22;;;8.65;100.00
37068;BME280;22982;42.848;25.468;2023-05-03T23:08:15;96534.56;;;8.87;100.00
37068;BME280;22982;42.848;25.468;2023-05-03T23:13:17;96543.09;;;8.73;100.00
37068;BME280;22982;42.848;25.468;2023-05-03T23:18:20;96526.16;;;8.62;100.00
37068;BME280;22982;42.848;25.468;2023-05-03T23:23:22;96520.09;;;8.79;100.00
37068;BME280;22982;42.848;25.468;2023-05-03T23:28:25;96547.97;;;8.61;100.00
37068;BME280;22982;42.848;25.468;2023-05-03T23:33:29;96510.16;;;8.69;100.00
37068;BME280;22982;42.848;25.468;2023-05-03T23:38:32;96519.03;;;8.84;100.00
37068;BME280;22982;42.848;25.468;2023-05-03T23:43:34;96495.72;;;8.79;100.00
37068;BME280;22982;42.848;25.468;2023-05-03T23:48:37;96486.44;;;8.73;100.00
37068;BME280;22982;42.848;25.468;2023-05-03T23:53:39;96466.81;;;8.65;100.00
37068;BME280;22982;42.848;25.468;2023-05-03T23:58:42;96489.88;;;8.56;100.00
